Hillingdon, United Kingdom

11:31 AM BST on August 28, 2016 (GMT +0100)
Ruislip | | Change Station

Elev 135 ft 51.56 °N, 0.40 °W | Updated 240 days ago

Rain
Rain
71 °F
Feels Like 71 °F
N
15
Wind Variable Wind from SW
Gusts mph

Today
High -- | Low -- °F
--% Chance of Precip.
Yesterday
High -- | Low -- °F
Precip. -- in
Pressure 29.92 in
Visibility 3.7 miles
Clouds Few 1400 ft
Mostly Cloudy 1800 ft
Dew Point 59 °F
Humidity 67%
Rainfall in
Snow Depth Not available.
6:08 AM 7:56 PM
Waning Crescent, 16% visible
METAR EGLL 281020Z 22011KT 180V250 6000 -RA FEW014 BKN018 18/17 Q1013 TEMPO 4500 SHRA BKN014
Pressure 29.92 in
Visibility 3.7 miles
Clouds Few 1400 ft
Mostly Cloudy 1800 ft
Dew Point 59 °F
Humidity 67%
Rainfall in
Snow Depth Not available.
6:08 AM 7:56 PM
Waning Crescent, 16% visible
METAR EGLL 281020Z 22011KT 180V250 6000 -RA FEW014 BKN018 18/17 Q1013 TEMPO 4500 SHRA BKN014

10-Day Weather Forecast

×

Almanac

Astronomy

Aug. 28, 2016 Rise Set
Actual Time
Civil Twilight
Nautical Twilight
Astronomical Twilight
Moon
Length of Visible Light
Length of Day
Tomorrow will be .
, % of the Moon is Illuminated

Today's Extremes

Country Highs Country Lows

Community

WunderPhotos

Upload Photos

1,935,541 photos uploaded!

WunderBlog® & News

Nearby

Air Quality

  Air Quality AQ Index Pollutant
Not available.

Snow Depth

Station Depth Elevation

Earthquake Activity

City Distance Mag. Time & Date
Minimum magnitude displayed is 2.5.

Coastal Water Temperatures

Place Temperature

Stations

Nearby Weather Stations

Station Location Temp. Windchill Dew Point Humidity Wind Precip. Elev Updated Type